createdAt,value
2022-09-20T08:20:19.467Z,8.10
2022-09-20T08:23:00.971Z,10.38
2022-09-20T08:25:34.815Z,6.93
2022-09-20T08:28:02.681Z,7.53
2022-09-20T08:30:30.920Z,9.00
2022-09-20T08:33:02.303Z,6.43
2022-09-20T08:35:29.765Z,8.13
2022-09-20T08:37:57.551Z,6.57
2022-09-20T08:40:45.142Z,7.35
2022-09-20T08:43:13.045Z,8.80
2022-09-20T08:45:42.278Z,9.98
2022-09-20T08:48:17.230Z,9.27
2022-09-20T08:50:44.798Z,9.63
2022-09-20T08:53:20.930Z,11.90
2022-09-20T08:55:49.295Z,7.13
2022-09-20T08:58:17.133Z,7.35
2022-09-20T09:00:47.677Z,8.65
2022-09-20T09:03:18.532Z,7.93
2022-09-20T09:05:48.200Z,7.03
2022-09-20T09:08:18.899Z,7.93
2022-09-20T09:10:54.655Z,4.47
2022-09-20T09:13:27.706Z,6.22
2022-09-20T09:15:58.671Z,5.35
2022-09-20T09:18:34.104Z,6.40
2022-09-20T09:21:04.114Z,6.45
2022-09-20T09:23:38.326Z,8.02
2022-09-20T09:26:06.401Z,7.05
2022-09-20T09:28:36.913Z,7.65
2022-09-20T09:31:21.583Z,5.85
2022-09-20T09:33:50.459Z,7.63
2022-09-20T09:36:23.547Z,5.70
2022-09-20T09:38:51.463Z,7.13
2022-09-20T09:41:28.724Z,4.93
2022-09-20T09:44:01.264Z,8.02
2022-09-20T09:46:33.105Z,7.88
2022-09-20T09:49:14.005Z,5.90
2022-09-20T09:51:43.945Z,8.23
2022-09-20T09:54:19.766Z,8.35
2022-09-20T09:56:59.555Z,8.15
2022-09-20T09:59:52.551Z,8.60
2022-09-20T10:02:41.223Z,6.05
2022-09-20T10:05:18.220Z,6.05
2022-09-20T10:07:51.999Z,5.82
2022-09-20T10:10:30.235Z,6.82
2022-09-20T10:13:11.107Z,8.40
2022-09-20T10:15:44.410Z,6.57
2022-09-20T10:18:27.572Z,8.82
2022-09-20T10:21:10.106Z,6.25
2022-09-20T10:24:06.221Z,8.15
2022-09-20T10:27:03.212Z,8.27
2022-09-20T10:29:43.137Z,7.65
2022-09-20T10:32:26.152Z,9.13
2022-09-20T10:35:11.525Z,9.63
2022-09-20T10:37:54.019Z,11.32
2022-09-20T10:40:51.343Z,7.18
2022-09-20T10:43:35.392Z,8.25
2022-09-20T10:46:31.395Z,6.88
2022-09-20T10:49:05.546Z,6.75
2022-09-20T10:51:45.025Z,6.43
2022-09-20T10:54:27.069Z,6.28
2022-09-20T10:57:07.875Z,4.95
2022-09-20T10:59:48.260Z,7.57
2022-09-20T11:02:31.097Z,5.68
2022-09-20T11:05:20.623Z,6.57
2022-09-20T11:07:57.884Z,7.47
2022-09-20T11:10:36.042Z,8.07
2022-09-20T11:13:08.339Z,6.90
2022-09-20T11:15:43.433Z,9.90
2022-09-20T11:18:17.327Z,7.25
2022-09-20T11:20:48.291Z,9.90
2022-09-20T11:23:21.060Z,7.95
2022-09-20T11:25:53.639Z,8.65
2022-09-20T11:28:27.384Z,8.23
2022-09-20T11:31:02.273Z,5.90
2022-09-20T11:33:38.063Z,8.27
2022-09-20T11:36:14.440Z,8.77
2022-09-20T11:38:53.015Z,7.95
2022-09-20T11:41:27.124Z,7.20
2022-09-20T11:43:59.779Z,11.05
2022-09-20T11:46:32.167Z,7.45
2022-09-20T11:49:03.915Z,8.30
2022-09-20T11:51:48.519Z,6.22
2022-09-20T11:54:31.171Z,9.35
2022-09-20T11:57:00.584Z,8.07
2022-09-20T11:59:33.941Z,5.88
2022-09-20T12:02:05.161Z,7.50
2022-09-20T12:04:36.219Z,6.50
2022-09-20T12:07:10.649Z,6.03
2022-09-20T12:09:43.446Z,7.10
2022-09-20T12:12:20.105Z,5.88
2022-09-20T12:14:55.947Z,7.68
2022-09-20T12:18:17.291Z,6.38
2022-09-20T12:21:03.060Z,5.25
2022-09-20T12:24:10.318Z,5.00
2022-09-20T12:26:56.198Z,6.82
2022-09-20T12:30:04.176Z,5.78
2022-09-20T12:32:57.383Z,6.45
2022-09-20T12:36:14.466Z,6.47
2022-09-20T12:39:06.566Z,5.70
2022-09-20T12:41:53.522Z,4.80
2022-09-20T12:44:29.226Z,5.88
2022-09-20T12:47:00.508Z,4.32
2022-09-20T12:50:07.566Z,4.10
2022-09-20T12:52:57.333Z,5.45
2022-09-20T12:55:55.294Z,3.95
2022-09-20T12:58:27.223Z,4.97
2022-09-20T13:01:28.445Z,6.22
2022-09-20T13:04:36.313Z,6.03
2022-09-20T13:07:46.899Z,3.65
2022-09-20T13:10:27.033Z,6.45
2022-09-20T13:13:00.278Z,3.75
2022-09-20T13:15:28.413Z,4.15
2022-09-20T13:17:59.073Z,5.75
2022-09-20T13:20:31.371Z,6.00
2022-09-20T13:23:00.583Z,4.10
2022-09-20T13:25:28.779Z,5.32
2022-09-20T13:28:04.324Z,2.47
2022-09-20T13:30:32.721Z,2.00
2022-09-20T13:33:17.388Z,6.35
2022-09-20T13:35:50.148Z,3.00
2022-09-20T13:38:24.937Z,5.40
2022-09-20T13:40:54.111Z,4.47
2022-09-20T13:43:28.845Z,5.82
2022-09-20T13:45:58.677Z,2.83
2022-09-20T13:48:27.615Z,3.95
2022-09-20T13:50:57.307Z,3.95
2022-09-20T13:56:11.227Z,2.60
2022-09-20T13:58:39.310Z,6.80
2022-09-20T14:01:21.891Z,2.95
2022-09-20T14:03:49.648Z,1.75
2022-09-20T14:06:18.522Z,3.80
2022-09-20T14:08:49.467Z,3.40
2022-09-20T14:11:19.774Z,2.90
2022-09-20T14:13:50.635Z,3.85
2022-09-20T14:16:21.255Z,3.45
2022-09-20T14:18:50.323Z,3.35
2022-09-20T14:21:24.329Z,2.75
2022-09-20T14:23:54.111Z,1.60
2022-09-20T14:26:24.141Z,3.15
2022-09-20T14:28:51.762Z,1.73
2022-09-20T14:31:24.085Z,4.57
2022-09-20T14:33:55.371Z,1.92
2022-09-20T14:36:27.430Z,2.22
2022-09-20T14:38:57.462Z,2.35
2022-09-20T14:41:32.333Z,3.45
2022-09-20T14:44:02.554Z,2.30
2022-09-20T14:46:33.854Z,2.92
2022-09-20T14:49:21.797Z,2.50
2022-09-20T14:51:51.081Z,1.40
2022-09-20T14:54:27.958Z,2.83
2022-09-20T14:56:57.581Z,1.20
2022-09-20T15:02:01.732Z,4.57
2022-09-20T15:04:31.570Z,2.25
2022-09-20T15:07:03.948Z,1.27
2022-09-20T15:09:31.417Z,0.90
2022-09-20T15:12:04.400Z,0.77
2022-09-20T15:14:37.202Z,1.85
2022-09-20T15:17:06.041Z,1.27
2022-09-20T15:19:34.421Z,0.98
2022-09-20T15:22:03.444Z,1.35
2022-09-20T15:24:30.968Z,0.98
2022-09-20T15:26:58.421Z,0.52
2022-09-20T15:29:26.020Z,4.32
2022-09-20T15:31:53.951Z,1.35
2022-09-20T15:34:21.429Z,2.90
2022-09-20T15:36:49.129Z,1.20
2022-09-20T15:39:17.940Z,2.28
2022-09-20T15:41:46.028Z,0.53
2022-09-20T15:44:17.163Z,2.28
2022-09-20T15:46:44.690Z,0.80
2022-09-20T15:49:13.714Z,3.83
2022-09-20T15:51:42.222Z,3.17
2022-09-20T15:54:14.600Z,1.85
2022-09-20T15:56:43.942Z,3.05
2022-09-20T15:59:13.324Z,3.72
2022-09-20T16:01:42.403Z,2.88
2022-09-20T16:04:10.804Z,5.50
2022-09-20T16:06:39.552Z,2.45
2022-09-20T16:09:07.724Z,2.73
2022-09-20T16:11:35.698Z,2.50
2022-09-20T16:14:04.739Z,1.95
2022-09-20T16:16:38.886Z,1.90
2022-09-20T16:19:20.359Z,5.88
2022-09-20T16:21:55.062Z,2.78
2022-09-20T16:24:25.577Z,2.03
2022-09-20T16:26:53.553Z,3.20
2022-09-20T16:29:23.456Z,3.33
2022-09-20T16:31:51.409Z,6.25
2022-09-20T16:34:20.844Z,2.50
2022-09-20T16:36:51.621Z,4.63
2022-09-20T16:39:20.663Z,3.17
2022-09-20T16:41:50.612Z,5.13
2022-09-20T16:44:18.679Z,4.00
2022-09-20T16:46:47.526Z,3.63
2022-09-20T16:49:16.717Z,5.90
2022-09-20T16:51:46.253Z,5.88
2022-09-20T16:54:15.447Z,2.80
2022-09-20T16:56:45.534Z,3.92
2022-09-20T16:59:15.477Z,1.85
2022-09-20T17:01:43.719Z,3.97
2022-09-20T17:04:14.286Z,1.60
2022-09-20T17:06:43.250Z,3.53
2022-09-20T17:09:11.447Z,3.80
2022-09-20T17:11:41.731Z,20.10
2022-09-20T17:14:09.751Z,4.65
2022-09-20T17:16:39.158Z,4.97
2022-09-20T17:19:08.927Z,3.17
2022-09-20T17:21:40.138Z,3.70
2022-09-20T17:24:08.675Z,7.15
2022-09-20T17:26:38.760Z,5.00
2022-09-20T17:29:08.111Z,5.57
2022-09-20T17:31:37.764Z,5.07
2022-09-20T17:36:39.105Z,9.80
2022-09-20T17:39:10.842Z,7.95
2022-09-20T17:41:39.749Z,9.73
2022-09-20T17:44:08.287Z,7.40
2022-09-20T17:46:37.815Z,8.40
2022-09-20T17:49:07.487Z,7.07
2022-09-20T17:51:39.253Z,8.35
2022-09-20T17:54:08.628Z,6.38
2022-09-20T17:56:37.114Z,6.60
2022-09-20T17:59:06.185Z,5.90
2022-09-20T18:01:35.988Z,12.32
2022-09-20T18:06:34.282Z,16.15
2022-09-20T18:09:03.829Z,10.77
2022-09-20T18:11:34.627Z,13.40
2022-09-20T18:14:03.687Z,6.45
2022-09-20T18:16:32.186Z,14.07
2022-09-20T18:19:00.175Z,6.95
2022-09-20T18:21:29.305Z,6.22
2022-09-20T18:23:57.418Z,6.32
2022-09-20T18:26:27.483Z,7.00
2022-09-20T18:28:58.455Z,4.28
2022-09-20T18:31:28.361Z,6.45
2022-09-20T18:36:27.235Z,6.72
2022-09-20T18:38:55.708Z,4.05
2022-09-20T18:41:25.920Z,5.53
2022-09-20T18:43:56.363Z,6.03
2022-09-20T18:46:27.448Z,4.78
2022-09-20T18:48:56.963Z,5.72
2022-09-20T18:51:26.194Z,3.33
2022-09-20T18:53:53.992Z,4.25
2022-09-20T18:56:25.158Z,6.60
2022-09-20T18:58:54.271Z,3.50
2022-09-20T19:01:40.244Z,5.07
2022-09-20T19:04:26.683Z,5.00
2022-09-20T19:07:02.886Z,4.82
2022-09-20T19:09:38.213Z,5.10
2022-09-20T19:12:20.301Z,3.72
2022-09-20T19:15:02.690Z,6.22
2022-09-20T19:17:46.257Z,5.55
2022-09-20T19:20:22.191Z,4.70
2022-09-20T19:23:00.496Z,5.20
2022-09-20T19:25:37.878Z,3.33
2022-09-20T19:28:05.915Z,3.30
2022-09-20T19:30:34.047Z,4.72
2022-09-20T19:33:03.406Z,3.42
2022-09-20T19:35:36.835Z,5.63
2022-09-20T19:38:15.448Z,5.80
2022-09-20T19:40:48.538Z,6.43
2022-09-20T19:43:32.753Z,5.47
2022-09-20T19:46:10.734Z,6.28
2022-09-20T19:48:42.865Z,4.22
2022-09-20T19:51:12.037Z,5.47
2022-09-20T19:53:40.174Z,4.70
2022-09-20T19:56:21.286Z,5.97
2022-09-20T19:58:52.936Z,4.65
2022-09-20T20:01:22.594Z,3.97
2022-09-20T20:03:52.525Z,6.80
2022-09-20T20:06:27.094Z,4.45
2022-09-20T20:09:02.978Z,7.03
2022-09-20T20:11:39.870Z,5.03
2022-09-20T20:14:27.985Z,6.13
2022-09-20T20:17:04.120Z,4.97
2022-09-20T20:19:51.175Z,5.13
2022-09-20T20:22:32.789Z,4.60
2022-09-20T20:25:00.867Z,6.43
2022-09-20T20:27:29.110Z,7.07
2022-09-20T20:29:56.870Z,7.60
2022-09-20T20:32:25.814Z,8.75
2022-09-20T20:34:54.658Z,14.07
2022-09-20T20:37:24.308Z,7.18
2022-09-20T20:39:52.103Z,4.72
2022-09-20T20:42:19.634Z,6.70
2022-09-20T20:44:47.507Z,5.20
2022-09-20T20:47:15.010Z,3.88
2022-09-20T20:49:42.477Z,4.88
2022-09-20T20:52:11.418Z,4.97
2022-09-20T20:54:39.253Z,2.87
2022-09-20T20:57:06.734Z,6.95
2022-09-20T20:59:34.344Z,2.58
2022-09-20T21:02:07.141Z,3.00
2022-09-20T21:04:36.877Z,2.28
2022-09-20T21:07:04.472Z,3.23
2022-09-20T21:09:33.271Z,4.28
2022-09-20T21:12:00.771Z,4.20
2022-09-20T21:14:28.220Z,3.35
2022-09-20T21:16:55.937Z,1.88
2022-09-20T21:19:23.739Z,2.28
2022-09-20T21:21:51.220Z,2.10
2022-09-20T21:24:18.689Z,3.42
2022-09-20T21:26:48.457Z,5.05
2022-09-20T21:29:16.974Z,1.48
2022-09-20T21:31:46.680Z,3.38
2022-09-20T21:34:16.014Z,2.58
2022-09-20T21:36:44.580Z,2.78
2022-09-20T21:39:13.131Z,4.78
2022-09-20T21:41:41.101Z,2.45
2022-09-20T21:44:11.992Z,1.33
2022-09-20T21:46:40.893Z,3.22
2022-09-20T21:49:09.852Z,1.38
2022-09-20T21:51:38.754Z,2.10
2022-09-20T21:54:06.964Z,2.22
2022-09-20T21:56:36.328Z,2.10
2022-09-20T21:59:04.639Z,2.92
2022-09-20T22:01:35.665Z,2.92
2022-09-20T22:04:06.544Z,2.30
2022-09-20T22:06:35.895Z,3.10
2022-09-20T22:09:05.678Z,4.32
2022-09-20T22:14:01.666Z,1.88
2022-09-20T22:16:30.655Z,2.35
2022-09-20T22:19:00.442Z,3.07
2022-09-20T22:23:58.416Z,2.08
2022-09-20T22:26:27.943Z,4.15
2022-09-20T22:28:55.761Z,5.53
2022-09-20T22:31:25.828Z,3.10
2022-09-20T22:33:55.368Z,2.30
2022-09-20T22:36:26.180Z,1.55
2022-09-20T22:38:54.250Z,3.40
2022-09-20T22:41:22.179Z,2.97
2022-09-20T22:43:50.358Z,1.95
2022-09-20T22:46:19.550Z,3.92
2022-09-20T22:48:48.558Z,3.33
2022-09-20T22:51:18.176Z,3.63
2022-09-20T22:53:47.999Z,2.85
2022-09-20T22:58:45.648Z,2.17
2022-09-20T23:01:15.544Z,2.83
2022-09-20T23:03:45.177Z,4.57
2022-09-20T23:06:14.897Z,3.72
2022-09-20T23:08:42.810Z,3.03
2022-09-20T23:11:12.105Z,1.65
2022-09-20T23:13:40.095Z,2.80
2022-09-20T23:16:15.030Z,3.78
2022-09-20T23:18:42.653Z,2.58
2022-09-20T23:21:10.119Z,3.25
2022-09-20T23:23:38.151Z,2.05
2022-09-20T23:26:07.813Z,4.63
2022-09-20T23:28:37.729Z,1.20
2022-09-20T23:33:33.703Z,4.22
2022-09-20T23:36:03.446Z,4.70
2022-09-20T23:38:30.927Z,2.65
2022-09-20T23:41:03.741Z,3.35
2022-09-20T23:43:31.440Z,5.03
2022-09-20T23:46:00.806Z,4.80
2022-09-20T23:48:28.360Z,2.95
2022-09-20T23:50:56.206Z,4.82
2022-09-20T23:53:24.109Z,4.85
2022-09-20T23:55:51.897Z,4.45
2022-09-20T23:58:19.335Z,3.60
